ROMMA est une association bénévole à but non lucratif. Votre soutien est indispensable : ADHERER à ROMMA ou FAIRE un DON

Saint-Martin-d'Hères - (38, Isère)

Vallée du Grésivaudan (220 m)   Longitude: 05° 45' 05" E   Latitude: 45° 10' 02" N Station partenaire n°4
 

Détail journalier du     <<     >>

Température Precipitation Humidité Pression Vent Dir Rafale Dir. rafale Ensol.
Heure (°C) (mm) (%) (hPa) (km/h) (km/h) (min)
01:00 14.6093102400---0
02:00 14.0094102400---0
03:00 13.6094102400---0
04:00 13.1095102300---0
05:00 12.8095102300---0
06:00 12.4095102300---0
07:00 12.0096102300---0
08:00 11.6096102300---0
09:00 11.7096102300---0
10:00 12.2096102300---0
11:00 14.8097102200---20
12:00 18.9078102100---60
13:00 21.7064102100---60
14:00 23.70561019011SSO60
15:00 24.105410181NNO15SSO50
16:00 25.705110171SSE11O60
17:00 25.40531017015ONO60
18:00 23.40591017018ONO20
19:00 20.4072101708SE0
20:00 18.7078101706SE0
21:00 17.4082101702SSE0
22:00 16.1086101700---0
23:00 15.3089101700---0
minuit 14.8091101700---0

Graphique du 13-10-2018

 

Serveur OMMA